Time;durP1;ratioP1;P1;durP2;ratioP2;P2;SDS_P1;SDS_P2;PMS_P1;PMS_P2;Temp;Humidity;BMP_temperature;BMP_pressure;BME280_temperature;BME280_humidity;BME280_pressure;Samples;Min_cycle;Max_cycle;Signal;HPM_P1;HPM_P2
2023/06/16 00:02:06;;;;;;;23.90;10.15;;;;;;;21.54;40.28;99465.56;6109902;23;20534;-92
2023/06/16 00:04:35;;;;;;;21.35;10.38;;;;;;;21.42;40.27;99444.38;6186352;23;20031;-90
2023/06/16 00:07:09;;;;;;;31.42;10.05;;;;;;;21.12;40.33;99397.19;6159702;23;20017;-89
2023/06/16 00:09:38;;;;;;;23.88;10.25;;;;;;;21.46;40.67;99439.69;6159039;23;20071;-89
2023/06/16 00:12:05;;;;;;;23.80;10.68;;;;;;;21.60;40.92;99458.47;6159990;23;20021;-90
2023/06/16 00:14:31;;;;;;;25.35;10.38;;;;;;;21.43;42.10;99434.09;6159602;23;20017;-89
2023/06/16 00:16:57;;;;;;;22.23;10.43;;;;;;;21.46;42.13;99445.25;6160460;23;20027;-91
2023/06/16 00:19:28;;;;;;;23.08;9.95;;;;;;;21.25;40.27;99411.63;6186622;23;20327;-89
2023/06/16 00:22:54;;;;;;;22.35;10.15;;;;;;;21.27;40.39;99420.41;6169029;23;20163;-88
2023/06/16 00:25:20;;;;;;;20.73;9.93;;;;;;;21.52;40.51;99462.38;6134166;23;20024;-90
2023/06/16 00:27:48;;;;;;;20.88;10.52;;;;;;;21.52;40.54;99465.16;6108758;23;20263;-90
2023/06/16 00:30:14;;;;;;;19.63;10.00;;;;;;;21.17;40.50;99416.31;6157415;23;20021;-90
2023/06/16 00:32:41;;;;;;;24.30;9.68;;;;;;;21.16;40.55;99409.19;6133322;23;20399;-90
2023/06/16 00:35:08;;;;;;;29.70;10.07;;;;;;;21.20;40.37;99415.56;6185352;23;20092;-91
2023/06/16 00:37:36;;;;;;;22.10;9.40;;;;;;;21.29;40.34;99429.97;6134412;23;20422;-90
2023/06/16 00:40:04;;;;;;;33.50;11.25;;;;;;;21.48;40.63;99461.53;6109860;23;20021;-90
2023/06/16 00:43:18;;;;;;;26.55;11.13;;;;;;;20.87;40.60;99367.19;6044807;23;20046;-91
2023/06/16 00:45:44;;;;;;;20.90;9.60;;;;;;;21.33;40.68;99439.13;6064082;23;20023;-87
2023/06/16 00:48:11;;;;;;;27.70;10.52;;;;;;;21.18;40.95;99425.47;6016156;23;20324;-88
2023/06/16 00:50:37;;;;;;;21.60;10.38;;;;;;;21.08;40.91;99410.25;6063663;23;20026;-87
2023/06/16 00:53:05;;;;;;;25.65;9.70;;;;;;;21.08;41.04;99404.72;6039204;23;20377;-89
2023/06/16 00:55:40;;;;;;;27.70;9.95;;;;;;;21.16;41.06;99414.72;6039834;23;20026;-88
2023/06/16 00:59:05;;;;;;;26.42;10.43;;;;;;;21.42;41.03;99465.84;6064157;23;20113;-88
2023/06/16 01:01:58;;;;;;;22.08;9.63;;;;;;;21.46;41.25;99466.69;6016481;23;20019;-89
2023/06/16 01:04:37;;;;;;;20.95;10.07;;;;;;;21.30;41.00;99439.88;6040902;23;20083;-88
2023/06/16 01:07:39;;;;;;;24.55;10.35;;;;;;;21.30;40.99;99439.88;6016476;23;20094;-88
2023/06/16 01:10:18;;;;;;;25.77;10.85;;;;;;;21.10;41.22;99402.34;6064065;23;20019;-89
2023/06/16 01:13:44;;;;;;;16.98;9.98;;;;;;;21.48;41.14;99465.09;6063803;23;20019;-88
2023/06/16 01:16:36;;;;;;;21.63;9.65;;;;;;;21.44;41.06;99469.06;6039187;23;20636;-89
2023/06/16 01:19:17;;;;;;;26.58;11.15;;;;;;;21.41;40.98;99455.91;6075968;23;20023;-89
2023/06/16 01:22:06;;;;;;;24.95;10.05;;;;;;;21.47;40.71;99468.28;6158707;23;20017;-89
2023/06/16 01:24:42;;;;;;;24.27;9.52;;;;;;;21.16;40.95;99416.69;6133019;23;20017;-89
2023/06/16 01:27:10;;;;;;;25.75;10.50;;;;;;;21.10;41.17;99410.69;6108753;23;20435;-89
2023/06/16 01:29:53;;;;;;;23.40;10.15;;;;;;;21.12;40.94;99408.31;6133300;23;20032;-90
2023/06/16 01:32:35;;;;;;;28.23;9.65;;;;;;;20.98;41.01;99378.41;6184932;23;20017;-89
2023/06/16 01:35:09;;;;;;;22.40;10.25;;;;;;;21.48;40.91;99458.75;6135192;23;20020;-89
2023/06/16 01:37:40;;;;;;;23.98;10.15;;;;;;;21.28;40.83;99433.91;6134937;23;20387;-89
2023/06/16 01:40:13;;;;;;;17.10;9.20;;;;;;;21.28;40.95;99433.91;6159750;23;20032;-90
2023/06/16 01:42:40;;;;;;;20.63;9.57;;;;;;;21.30;40.99;99431.56;6134375;23;20044;-89
2023/06/16 01:45:16;;;;;;;21.73;10.15;;;;;;;21.19;41.02;99396.47;6134998;23;20077;-90
2023/06/16 01:47:46;;;;;;;20.05;10.13;;;;;;;21.55;40.92;99458.81;6110562;23;20012;-88
2023/06/16 01:50:19;;;;;;;27.38;9.70;;;;;;;21.17;41.35;99394.09;6159105;23;20017;-89
2023/06/16 01:52:48;;;;;;;31.38;10.73;;;;;;;21.29;41.50;99406.88;6159794;23;20119;-87
2023/06/16 01:55:14;;;;;;;19.90;9.52;;;;;;;21.50;40.79;99434.16;6109752;23;20127;-88
2023/06/16 01:58:36;;;;;;;22.60;9.90;;;;;;;21.69;41.06;99461.75;6186508;23;20013;-89
2023/06/16 02:01:11;;;;;;;15.98;9.45;;;;;;;21.50;40.87;99445.28;6159640;23;20013;-90
2023/06/16 02:04:01;;;;;;;19.95;10.00;;;;;;;21.54;41.03;99454.44;6159615;23;20021;-89
2023/06/16 02:10:01;;;;;;;24.80;10.13;;;;;;;21.30;41.14;99425.19;6184470;23;20083;-88
2023/06/16 02:12:31;;;;;;;21.27;10.07;;;;;;;21.14;41.26;99405.97;6183421;23;20092;-89
2023/06/16 02:15:15;;;;;;;24.83;11.73;;;;;;;21.31;41.26;99429.56;6159120;23;20021;-89
2023/06/16 02:17:52;;;;;;;30.15;11.18;;;;;;;20.99;41.49;99381.97;6183380;23;20395;-88
2023/06/16 02:20:26;;;;;;;30.52;11.60;;;;;;;21.28;41.66;99421.97;6161779;23;20502;-90
2023/06/16 02:23:16;;;;;;;27.48;11.75;;;;;;;21.45;41.75;99457.53;6183806;23;20407;-88
2023/06/16 02:25:48;;;;;;;24.90;11.38;;;;;;;21.20;41.34;99412.78;6159019;23;20474;-90
2023/06/16 02:28:15;;;;;;;31.25;11.30;;;;;;;21.03;41.78;99388.38;6152985;23;20068;-89
2023/06/16 02:30:47;;;;;;;26.83;11.05;;;;;;;21.15;41.95;99398.41;6154026;23;20036;-89
2023/06/16 02:33:15;;;;;;;25.67;11.10;;;;;;;21.33;41.89;99422.44;6128716;23;20025;-89
2023/06/16 02:36:05;;;;;;;26.63;11.48;;;;;;;21.20;41.78;99398.88;6155387;23;20033;-89
2023/06/16 02:39:27;;;;;;;23.33;10.43;;;;;;;21.56;41.67;99446.53;6128813;23;20017;-91
2023/06/16 02:41:58;;;;;;;33.25;10.52;;;;;;;21.12;41.69;99383.28;6106105;23;20029;-90
2023/06/16 02:44:24;;;;;;;33.05;10.65;;;;;;;21.44;41.31;99416.22;6154651;23;20068;-88
2023/06/16 02:46:54;;;;;;;34.67;11.23;;;;;;;21.65;41.71;99443.41;6125317;23;20053;-89
2023/06/16 02:49:21;;;;;;;29.20;10.80;;;;;;;21.38;41.56;99389.94;6075846;23;20113;-90
2023/06/16 02:51:50;;;;;;;29.38;11.32;;;;;;;21.44;40.69;99388.41;6124255;23;20025;-88
2023/06/16 02:54:16;;;;;;;30.55;11.80;;;;;;;21.55;41.29;99406.75;6124982;23;20100;-90
2023/06/16 02:56:42;;;;;;;26.92;10.55;;;;;;;21.63;40.88;99399.28;6149249;23;20018;-89
2023/06/16 03:00:03;;;;;;;18.83;10.77;;;;;;;22.03;41.00;99445.69;6124671;23;20026;-90
2023/06/16 03:02:35;;;;;;;24.10;10.20;;;;;;;21.80;40.73;99403.38;6102219;23;20258;-90
2023/06/16 03:05:27;;;;;;;30.75;11.00;;;;;;;21.74;41.21;99393.78;6008544;23;20048;-90
2023/06/16 03:07:58;;;;;;;19.33;10.88;;;;;;;21.63;41.12;99382.59;5983703;23;20016;-89
2023/06/16 03:10:31;;;;;;;24.52;11.02;;;;;;;21.95;41.06;99423.75;5961616;23;20072;-89
2023/06/16 03:13:31;;;;;;;27.80;11.20;;;;;;;22.17;40.74;99450.59;5983609;23;20115;-88
2023/06/16 03:15:57;;;;;;;25.35;11.43;;;;;;;22.03;41.05;99419.84;6010478;23;20364;-91
2023/06/16 03:18:27;;;;;;;22.88;10.98;;;;;;;22.21;40.51;99429.13;6125089;23;20026;-89
2023/06/16 03:21:03;;;;;;;27.90;11.70;;;;;;;21.88;41.26;99373.63;6101190;23;20017;-90
2023/06/16 03:26:45;;;;;;;26.52;11.38;;;;;;;22.18;41.11;99415.97;6159220;23;20525;-89
2023/06/16 03:29:17;;;;;;;30.02;12.27;;;;;;;22.13;40.85;99396.06;6134835;23;20024;-90
2023/06/16 03:31:43;;;;;;;31.50;11.18;;;;;;;22.48;40.85;99459.53;6134815;23;20024;-89
2023/06/16 03:35:09;;;;;;;25.05;11.77;;;;;;;22.51;40.79;99455.97;6136190;23;20024;-90
2023/06/16 03:37:36;;;;;;;29.20;11.27;;;;;;;22.04;41.00;99372.13;6133848;23;20447;-90
2023/06/16 03:40:06;;;;;;;25.17;12.05;;;;;;;22.27;41.16;99404.50;6111582;23;20075;-90
2023/06/16 03:44:05;;;;;;;29.42;12.45;;;;;;;22.67;41.47;99444.50;6164359;23;20056;-90
2023/06/16 03:46:36;;;;;;;25.05;11.25;;;;;;;22.36;41.29;99391.03;6133243;23;20020;-90
2023/06/16 03:49:02;;;;;;;27.90;11.80;;;;;;;22.46;41.55;99395.06;6134808;23;20048;-90
2023/06/16 03:51:39;;;;;;;22.10;11.02;;;;;;;22.47;41.86;99394.66;6134465;23;20021;-88
2023/06/16 03:54:22;;;;;;;28.65;11.98;;;;;;;22.41;41.94;99382.28;6141728;23;20355;-88
2023/06/16 03:57:13;;;;;;;34.40;11.48;;;;;;;22.81;41.64;99436.19;6156301;23;20498;-89
2023/06/16 03:59:45;;;;;;;31.00;11.98;;;;;;;22.46;42.10;99384.72;6154704;23;20036;-89
2023/06/16 04:03:08;;;;;;;28.10;11.73;;;;;;;22.88;41.78;99440.97;6124628;23;20393;-90
2023/06/16 04:05:42;;;;;;;25.70;11.68;;;;;;;22.93;42.09;99443.44;6124267;23;20121;-89
2023/06/16 04:08:36;;;;;;;110.72;15.07;;;;;;;22.93;41.98;99432.28;6147967;23;20021;-89
2023/06/16 04:11:55;;;;;;;26.38;11.07;;;;;;;22.94;41.92;99433.88;6102824;23;20021;-89
2023/06/16 04:15:27;;;;;;;23.08;11.02;;;;;;;23.02;40.47;99429.13;6129386;23;20052;-90
2023/06/16 04:18:50;;;;;;;29.92;11.35;;;;;;;22.95;40.96;99430.69;6102653;23;20115;-88
2023/06/16 04:22:12;;;;;;;26.25;10.80;;;;;;;22.93;40.94;99435.06;6153418;23;20014;-87
2023/06/16 04:24:48;;;;;;;20.55;10.55;;;;;;;22.63;40.81;99393.53;6128207;23;20028;-89
2023/06/16 04:27:51;;;;;;;21.42;10.80;;;;;;;22.92;40.64;99428.66;6178607;23;20267;-89
2023/06/16 04:30:24;;;;;;;19.25;9.93;;;;;;;22.82;40.87;99411.91;6156767;23;20468;-90
2023/06/16 04:33:01;;;;;;;23.42;10.68;;;;;;;22.83;40.10;99403.16;6132934;23;20024;-90
2023/06/16 04:35:55;;;;;;;18.25;9.77;;;;;;;23.07;41.04;99439.88;6110154;23;20018;-90
2023/06/16 04:38:31;;;;;;;25.25;10.27;;;;;;;22.94;40.43;99408.78;6107155;23;20087;-89
2023/06/16 04:40:59;;;;;;;31.30;10.32;;;;;;;23.01;40.47;99410.78;6106550;23;20467;-88
2023/06/16 04:43:31;;;;;;;17.02;9.68;;;;;;;23.11;40.11;99430.34;6106535;23;20040;-90
2023/06/16 04:46:08;;;;;;;25.42;9.60;;;;;;;23.03;39.92;99416.78;6130639;23;20359;-91
2023/06/16 04:48:38;;;;;;;16.70;9.60;;;;;;;22.89;39.99;99389.63;6155874;23;20360;-89
2023/06/16 04:51:21;;;;;;;17.40;9.48;;;;;;;22.92;39.17;99400.00;6157050;23;20022;-89
2023/06/16 04:54:44;;;;;;;21.02;9.23;;;;;;;23.28;38.84;99437.16;6133021;23;20017;-89
2023/06/16 04:57:13;;;;;;;27.23;9.65;;;;;;;22.90;39.30;99364.13;6130685;23;20482;-90
2023/06/16 04:59:39;;;;;;;23.83;9.32;;;;;;;23.12;38.83;99390.13;6107664;23;20029;-90
2023/06/16 05:03:10;;;;;;;20.20;10.25;;;;;;;23.57;38.93;99445.53;6111297;23;20081;-91
2023/06/16 05:12:20;;;;;;;38.85;10.45;;;;;;;23.72;39.41;99413.69;6095482;23;20057;-90
2023/06/16 05:15:11;;;;;;;;;;;;;;;23.86;38.69;99421.25;6070185;23;20018;-90
2023/06/16 05:17:55;;;;;;;25.33;10.20;;;;;;;23.77;38.01;99385.34;6095520;23;19949;-90
2023/06/16 05:20:38;;;;;;;29.92;10.63;;;;;;;23.90;39.04;99392.13;6044903;23;20022;-93
2023/06/16 05:23:06;;;;;;;28.52;9.20;;;;;;;24.20;39.05;99398.44;6094403;23;20318;-88
2023/06/16 05:25:32;;;;;;;16.75;9.20;;;;;;;24.22;38.82;99382.09;6048472;23;20034;-89
2023/06/16 05:28:53;;;;;;;25.67;9.98;;;;;;;24.74;39.61;99439.03;6073648;23;20146;-90
2023/06/16 05:31:23;;;;;;;31.05;10.32;;;;;;;24.87;39.27;99410.59;6071127;23;20487;-88
2023/06/16 05:33:56;;;;;;;35.17;10.15;;;;;;;25.05;38.88;99428.09;6072926;23;20115;-87
2023/06/16 05:36:24;;;;;;;27.48;10.15;;;;;;;25.01;37.81;99419.72;6071113;23;20029;-88
2023/06/16 05:38:51;;;;;;;34.78;10.68;;;;;;;25.09;37.11;99434.44;6094070;23;20061;-88
2023/06/16 05:41:20;;;;;;;56.85;11.48;;;;;;;25.11;37.20;99422.88;6069082;23;20018;-88
2023/06/16 05:43:47;;;;;;;28.65;10.45;;;;;;;25.24;37.08;99429.59;6070631;23;20022;-87
2023/06/16 05:46:13;;;;;;;22.90;9.48;;;;;;;25.36;35.40;99437.50;6094888;23;20018;-90
2023/06/16 05:48:39;;;;;;;35.25;10.60;;;;;;;25.23;34.08;99414.00;6079755;23;20021;-88
2023/06/16 05:51:05;;;;;;;;;;;;;;;25.37;34.65;99427.91;6153649;23;20096;-89
2023/06/16 05:53:31;;;;;;;20.75;8.68;;;;;;;25.24;33.78;99416.41;6103009;23;19943;-89
2023/06/16 05:55:57;;;;;;;49.50;9.52;;;;;;;25.39;35.55;99414.28;6127497;23;20017;-87
2023/06/16 05:58:24;;;;;;;46.05;11.43;;;;;;;25.62;35.52;99429.72;6154322;23;20029;-87
2023/06/16 06:00:50;;;;;;;28.33;9.57;;;;;;;25.78;36.12;99421.59;6128007;23;20023;-88
2023/06/16 06:03:19;;;;;;;33.35;9.20;;;;;;;25.74;34.74;99404.03;6129149;23;20025;-86
2023/06/16 06:05:45;;;;;;;26.98;10.02;;;;;;;25.96;34.28;99427.03;6154819;23;20022;-89
2023/06/16 06:08:14;;;;;;;35.88;9.65;;;;;;;25.97;34.48;99411.84;6130950;23;20021;-86
2023/06/16 06:10:40;;;;;;;28.15;12.63;;;;;;;26.04;33.33;99417.38;6154857;23;20100;-87
2023/06/16 06:13:06;;;;;;;56.42;10.80;;;;;;;26.07;33.84;99436.16;6153448;23;20022;-87
2023/06/16 06:15:35;;;;;;;28.30;10.57;;;;;;;25.73;32.55;99386.44;6129288;23;20018;-86
2023/06/16 06:18:09;;;;;;;34.35;9.65;;;;;;;25.71;33.98;99400.03;6131241;23;20108;-87
2023/06/16 06:20:39;;;;;;;17.13;8.82;;;;;;;25.77;32.96;99406.00;6131449;23;20032;-86
2023/06/16 06:23:05;;;;;;;23.15;9.38;;;;;;;25.90;33.10;99428.72;6105024;23;20066;-86
2023/06/16 06:25:32;;;;;;;13.38;8.45;;;;;;;25.77;32.12;99423.59;6155261;23;20039;-86
2023/06/16 06:27:58;;;;;;;30.80;9.40;;;;;;;25.62;32.92;99405.31;6130904;23;20017;-84
2023/06/16 06:30:25;;;;;;;30.20;11.00;;;;;;;25.68;32.44;99414.09;6107093;23;20029;-87
2023/06/16 06:32:51;;;;;;;19.73;10.13;;;;;;;25.92;33.62;99426.28;6131842;23;20363;-85
2023/06/16 06:35:18;;;;;;;32.30;9.98;;;;;;;25.94;33.01;99424.69;6153955;23;20017;-85
2023/06/16 06:37:45;;;;;;;16.15;9.30;;;;;;;26.10;33.64;99418.53;6154095;23;20104;-89
2023/06/16 06:40:11;;;;;;;15.00;8.52;;;;;;;26.12;32.18;99423.69;6154846;23;20068;-85
2023/06/16 06:42:37;;;;;;;22.90;7.47;;;;;;;25.95;31.53;99391.84;6155282;23;20355;-89
2023/06/16 06:45:22;;;;;;;15.68;7.60;;;;;;;25.81;30.49;99401.19;6157414;23;20024;-91
2023/06/16 06:47:48;;;;;;;19.58;7.70;;;;;;;25.88;31.01;99403.91;6133028;23;20100;-86
2023/06/16 06:50:14;;;;;;;17.25;7.43;;;;;;;25.81;30.08;99387.19;6157064;23;20113;-92
2023/06/16 06:52:40;;;;;;;16.75;7.35;;;;;;;25.83;31.95;99383.97;6154991;23;20109;-86
2023/06/16 06:55:07;;;;;;;26.63;8.75;;;;;;;25.89;31.76;99380.28;6154582;23;20098;-85
2023/06/16 06:57:32;;;;;;;;;;;;;;;25.99;29.98;99424.25;6130095;23;20065;-89
2023/06/16 06:59:58;;;;;;;;;;;;;;;25.89;30.51;99422.31;6154635;23;19920;-89
2023/06/16 07:02:24;;;;;;;86.93;11.40;;;;;;;25.61;29.80;99388.94;6156210;23;19923;-85
2023/06/16 07:04:50;;;;;;;32.00;8.63;;;;;;;25.59;29.67;99380.16;6157252;23;20052;-87
2023/06/16 07:07:16;;;;;;;21.45;7.47;;;;;;;25.83;29.40;99407.19;6155041;23;20376;-84
2023/06/16 07:09:42;;;;;;;20.85;8.32;;;;;;;25.97;30.73;99401.44;6160078;23;20028;-85
2023/06/16 07:12:09;;;;;;;16.83;7.47;;;;;;;26.08;29.53;99403.34;6158233;23;20017;-85
2023/06/16 07:14:35;;;;;;;23.10;9.30;;;;;;;26.14;30.63;99388.44;6135820;23;20035;-88
2023/06/16 07:17:02;;;;;;;20.55;7.90;;;;;;;26.11;30.72;99377.28;6160011;23;20029;-89
2023/06/16 07:19:28;;;;;;;20.55;7.75;;;;;;;26.53;30.28;99397.66;6132604;23;20408;-87
2023/06/16 07:21:54;;;;;;;26.52;9.02;;;;;;;26.66;29.25;99382.66;6156728;23;20021;-87
2023/06/16 07:24:21;;;;;;;14.88;7.03;;;;;;;26.77;28.30;99379.72;6131589;23;20022;-85
2023/06/16 07:26:47;;;;;;;;;;;;;;;26.98;26.25;99389.84;6157624;23;20014;-87
2023/06/16 07:29:13;;;;;;;;;;;;;;;26.85;26.07;99394.41;6170554;23;19923;-86
2023/06/16 07:31:38;;;;;;;;;;;;;;;26.70;26.56;99389.00;6168272;23;20310;-85
2023/06/16 07:34:04;;;;;;;18.63;7.13;;;;;;;26.78;26.30;99400.94;6166606;23;19964;-89
2023/06/16 07:36:32;;;;;;;30.88;6.32;;;;;;;26.46;25.35;99385.28;6111846;23;20025;-87
2023/06/16 07:38:58;;;;;;;17.15;6.78;;;;;;;26.55;27.17;99401.63;6157147;23;20048;-85
2023/06/16 07:41:24;;;;;;;46.35;13.95;;;;;;;26.54;28.20;99374.81;6157348;23;20045;-84
2023/06/16 07:43:52;;;;;;;36.22;9.32;;;;;;;26.63;26.17;99389.13;6157188;23;20021;-88
2023/06/16 07:46:18;;;;;;;19.60;7.22;;;;;;;26.51;26.19;99395.25;6108267;23;20021;-89
2023/06/16 07:48:46;;;;;;;24.48;7.97;;;;;;;26.38;27.09;99383.78;6155486;23;20068;-92
2023/06/16 07:51:12;;;;;;;18.30;8.93;;;;;;;26.14;27.46;99351.25;6135830;23;20101;-91
2023/06/16 07:53:42;;;;;;;11.55;7.15;;;;;;;26.14;27.36;99343.63;6089858;23;20025;-92
2023/06/16 07:56:10;;;;;;;32.33;8.00;;;;;;;26.50;28.48;99387.28;6088012;23;20021;-90
2023/06/16 07:58:38;;;;;;;30.35;7.82;;;;;;;26.44;28.36;99361.69;6136131;23;20017;-92
2023/06/16 08:01:04;;;;;;;20.20;7.63;;;;;;;26.50;27.27;99364.84;6107277;23;20049;-90
2023/06/16 08:03:31;;;;;;;22.77;7.60;;;;;;;26.46;27.95;99371.28;6143571;23;20112;-90
2023/06/16 08:05:59;;;;;;;28.40;7.93;;;;;;;26.17;28.71;99334.38;6127791;23;20089;-91
2023/06/16 08:08:27;;;;;;;32.88;8.68;;;;;;;26.59;32.46;99390.34;6165573;23;20197;-93
2023/06/16 08:10:58;;;;;;;15.65;7.18;;;;;;;26.44;28.89;99390.50;6161422;23;20025;-90
2023/06/16 08:13:28;;;;;;;32.20;8.57;;;;;;;26.15;27.55;99386.44;6114172;23;20052;-89
2023/06/16 08:15:54;;;;;;;32.80;7.93;;;;;;;26.00;28.25;99364.19;6159382;23;20022;-89
2023/06/16 08:18:20;;;;;;;34.15;8.57;;;;;;;26.08;29.79;99367.69;6135742;23;20028;-93
2023/06/16 08:20:47;;;;;;;30.15;8.55;;;;;;;26.29;30.21;99399.50;6162200;23;20040;-94
2023/06/16 08:23:13;;;;;;;24.58;7.13;;;;;;;26.19;27.06;99399.22;6160391;23;20059;-93
2023/06/16 08:25:39;;;;;;;28.00;7.88;;;;;;;25.99;27.07;99382.22;6159092;23;20052;-88
2023/06/16 08:28:09;;;;;;;26.08;8.05;;;;;;;25.80;26.72;99365.19;6157429;23;20071;-90
2023/06/16 08:30:36;;;;;;;23.70;7.00;;;;;;;25.78;28.73;99371.97;6135827;23;20024;-88
2023/06/16 08:33:02;;;;;;;27.13;7.53;;;;;;;25.96;30.70;99382.22;6156823;23;20073;-91
2023/06/16 08:35:28;;;;;;;23.92;7.78;;;;;;;26.10;26.62;99398.13;6132026;23;20021;-88
2023/06/16 08:37:55;;;;;;;27.15;7.72;;;;;;;25.91;32.00;99368.69;6158435;23;20016;-91
2023/06/16 08:40:21;;;;;;;19.17;6.80;;;;;;;26.01;28.28;99379.78;6157689;23;20025;-91
2023/06/16 08:42:47;;;;;;;14.73;6.93;;;;;;;25.96;27.09;99371.03;6133610;23;20124;-92
2023/06/16 08:45:14;;;;;;;20.65;7.32;;;;;;;26.08;31.01;99376.09;6109924;23;20021;-91
2023/06/16 08:47:42;;;;;;;22.75;6.75;;;;;;;26.00;31.42;99383.00;6106344;23;20040;-90
2023/06/16 08:50:09;;;;;;;52.72;8.90;;;;;;;25.77;28.66;99341.59;6136895;23;20360;-89
2023/06/16 08:52:39;;;;;;;41.20;9.70;;;;;;;26.05;28.35;99370.53;6157974;23;20407;-90
2023/06/16 08:55:11;;;;;;;40.13;13.32;;;;;;;26.08;27.11;99356.50;6134987;23;20017;-93
2023/06/16 08:57:44;;;;;;;52.47;17.27;;;;;;;26.34;28.97;99360.59;6165814;23;20021;-91
2023/06/16 09:00:10;;;;;;;28.67;9.20;;;;;;;26.65;28.17;99372.66;6141531;23;20033;-91
2023/06/16 09:02:41;;;;;;;21.98;10.13;;;;;;;26.52;29.50;99318.34;6120142;23;20077;-93
2023/06/16 09:05:10;;;;;;;18.13;9.32;;;;;;;26.59;28.66;99301.44;6168373;23;20117;-89
2023/06/16 09:07:44;;;;;;;17.05;8.52;;;;;;;26.80;28.72;99279.91;6161200;23;20555;-95
2023/06/16 09:10:13;;;;;;;12.07;7.05;;;;;;;27.10;26.88;99293.84;6134533;23;20475;-91
2023/06/16 09:13:24;;;;;;;19.33;8.70;;;;;;;27.25;28.26;99288.84;6159938;23;20108;-93
2023/06/16 09:16:59;;;;;;;26.40;7.85;;;;;;;27.32;26.59;99305.56;6073105;23;20015;-91
2023/06/16 09:19:52;;;;;;;14.13;6.57;;;;;;;27.65;27.12;99328.25;6138644;23;20068;-90
2023/06/16 09:30:15;;;;;;;13.02;7.28;;;;;;;28.10;25.79;99330.63;6065202;23;20032;-93
2023/06/16 09:40:09;;;;;;;49.05;8.15;;;;;;;28.62;24.15;99310.28;6061267;23;20026;-87
2023/06/16 09:42:58;;;;;;;11.57;7.03;;;;;;;28.89;23.47;99348.69;6018193;23;20046;-84
2023/06/16 09:45:30;;;;;;;11.95;7.55;;;;;;;28.63;22.95;99336.41;6061928;23;20074;-88
2023/06/16 09:48:02;;;;;;;15.98;7.88;;;;;;;28.55;25.01;99347.00;6018834;23;20478;-88
2023/06/16 09:50:36;;;;;;;16.98;7.65;;;;;;;28.50;23.27;99344.69;6045456;23;20183;-89
2023/06/16 09:53:07;;;;;;;10.35;7.47;;;;;;;28.37;24.66;99344.53;6063047;23;20054;-84
2023/06/16 09:55:40;;;;;;;37.45;8.98;;;;;;;28.12;24.57;99342.25;6064622;23;20042;-86
2023/06/16 09:58:06;;;;;;;13.05;7.38;;;;;;;27.90;25.39;99335.44;6039582;23;20029;-84
2023/06/16 10:00:33;;;;;;;37.88;8.48;;;;;;;27.56;24.99;99311.94;6018243;23;20026;-88
2023/06/16 10:03:00;;;;;;;;;;;;;;;27.62;25.04;99338.31;6046762;23;20022;-89
2023/06/16 10:05:31;;;;;;;27.45;7.97;;;;;;;27.19;25.64;99304.56;6073287;23;19917;-88
2023/06/16 10:07:57;;;;;;;15.45;7.82;;;;;;;27.29;25.87;99334.47;6068051;23;20021;-84
2023/06/16 10:10:33;;;;;;;22.10;7.95;;;;;;;26.94;25.86;99283.28;6065579;23;20090;-84
2023/06/16 10:13:03;;;;;;;12.20;7.68;;;;;;;27.19;25.88;99303.78;6040130;23;20488;-87
2023/06/16 10:15:34;;;;;;;28.13;12.85;;;;;;;27.29;26.17;99317.63;6036715;23;20150;-81
2023/06/16 10:18:06;;;;;;;17.30;8.43;;;;;;;27.41;28.79;99333.84;6086657;23;20018;-82
2023/06/16 10:20:32;;;;;;;18.63;8.48;;;;;;;27.15;25.32;99304.63;6100611;23;20026;-84
2023/06/16 10:23:02;;;;;;;15.35;8.07;;;;;;;27.25;26.13;99330.13;6124608;23;20029;-82
2023/06/16 10:25:29;;;;;;;13.77;7.68;;;;;;;26.85;25.99;99277.41;6127313;23;20653;-89
2023/06/16 10:27:56;;;;;;;23.60;7.82;;;;;;;27.09;25.31;99322.34;6125398;23;20609;-81
2023/06/16 10:30:23;;;;;;;49.20;8.60;;;;;;;27.09;26.20;99319.53;6099084;23;20412;-83
2023/06/16 10:32:52;;;;;;;16.85;6.65;;;;;;;27.26;24.93;99331.72;6095696;23;20764;-83
2023/06/16 10:35:20;;;;;;;16.90;7.90;;;;;;;27.26;27.85;99298.06;6138927;23;20073;-86
2023/06/16 10:37:52;;;;;;;24.55;7.65;;;;;;;27.44;24.83;99292.13;6152724;23;20064;-85
2023/06/16 10:40:19;;;;;;;13.68;6.97;;;;;;;27.75;24.58;99324.47;6154300;23;20048;-83
2023/06/16 10:42:46;;;;;;;9.63;7.57;;;;;;;27.77;24.52;99307.97;6154550;23;20072;-82
2023/06/16 10:45:24;;;;;;;11.40;7.47;;;;;;;27.90;24.60;99315.78;6155565;23;20104;-87
2023/06/16 10:47:57;;;;;;;17.33;7.90;;;;;;;28.07;24.67;99309.00;6158267;23;20037;-83
2023/06/16 10:50:43;;;;;;;14.38;7.50;;;;;;;27.97;24.88;99256.63;6181094;23;20013;-82
2023/06/16 10:53:22;;;;;;;13.88;8.00;;;;;;;28.45;26.07;99303.84;6152767;23;20022;-86
2023/06/16 10:56:04;;;;;;;15.10;8.27;;;;;;;28.59;23.57;99280.22;6129788;23;20093;-83
2023/06/16 10:58:30;;;;;;;15.18;8.77;;;;;;;28.80;24.27;99276.91;6154458;23;20447;-83
2023/06/16 11:00:57;;;;;;;;;;;;;;;29.13;24.13;99290.22;6129336;23;20018;-82
2023/06/16 11:03:45;;;;;;;15.02;8.02;;;;;;;28.99;23.43;99285.72;6158119;23;19916;-88
2023/06/16 11:06:12;;;;;;;17.92;7.88;;;;;;;28.72;25.06;99281.13;6154309;23;20018;-87
2023/06/16 11:08:52;;;;;;;25.35;8.13;;;;;;;28.48;24.35;99280.47;6156313;23;20017;-88
2023/06/16 11:11:18;;;;;;;45.60;9.32;;;;;;;28.38;25.97;99289.09;6153951;23;20024;-91
2023/06/16 11:14:10;;;;;;;23.75;7.75;;;;;;;28.39;25.56;99293.50;6155735;23;20031;-88
2023/06/16 11:16:36;;;;;;;42.40;10.05;;;;;;;28.25;25.16;99270.09;6153239;23;20017;-87
2023/06/16 11:19:02;;;;;;;37.95;9.00;;;;;;;28.28;26.31;99293.75;6182933;23;20022;-89
2023/06/16 11:21:31;;;;;;;17.75;7.97;;;;;;;28.06;24.04;99280.13;6159204;23;20073;-90
2023/06/16 11:24:13;;;;;;;15.75;8.05;;;;;;;27.84;23.75;99270.53;6159040;23;20016;-92
2023/06/16 11:26:53;;;;;;;16.23;8.30;;;;;;;27.69;24.75;99277.63;6111955;23;20047;-91
2023/06/16 11:29:25;;;;;;;29.80;8.43;;;;;;;27.58;24.39;99264.59;6156905;23;20029;-89
2023/06/16 11:31:52;;;;;;;34.10;11.30;;;;;;;27.67;24.68;99278.03;6156383;23;20021;-89
2023/06/16 11:34:24;;;;;;;14.25;7.93;;;;;;;27.77;24.14;99291.13;6150568;23;20504;-89
2023/06/16 11:36:51;;;;;;;17.73;8.68;;;;;;;27.93;27.09;99286.81;6153428;23;20024;-89
2023/06/16 11:39:17;;;;;;;;;;;;;;;28.21;24.05;99282.63;6131045;23;20018;-87
2023/06/16 11:41:43;;;;;;;;;;;;;;;28.25;25.33;99275.72;6155083;23;19923;-92
2023/06/16 11:44:20;;;;;;;;;;;;;;;28.20;23.50;99287.47;6182785;23;19920;-89
2023/06/16 11:46:47;;;;;;;12.20;7.90;;;;;;;28.12;22.81;99227.00;6184144;23;19918;-91
2023/06/16 11:49:13;;;;;;;38.05;9.18;;;;;;;28.45;23.99;99230.72;6157186;23;20116;-95
2023/06/16 11:51:53;;;;;;;37.75;9.45;;;;;;;28.55;27.08;99201.56;6131952;23;20017;-92
2023/06/16 11:54:44;;;;;;;33.45;8.70;;;;;;;29.40;27.95;99262.56;6157631;23;20368;-94
2023/06/16 11:57:10;;;;;;;28.52;9.15;;;;;;;29.58;26.01;99247.25;6158231;23;20021;-94
2023/06/16 11:59:37;;;;;;;41.28;9.88;;;;;;;29.75;23.88;99237.53;6108645;23;20081;-90
2023/06/16 12:02:08;;;;;;;;;;;;;;;30.09;24.29;99256.66;6183551;23;20522;-91
2023/06/16 12:04:37;;;;;;;25.27;7.78;;;;;;;30.04;22.25;99233.91;6185553;23;19920;-93
2023/06/16 12:07:30;;;;;;;23.10;7.55;;;;;;;30.31;22.37;99236.34;6159526;23;20064;-90
2023/06/16 12:09:56;;;;;;;16.23;7.97;;;;;;;30.45;23.31;99238.69;6153751;23;20017;-85
2023/06/16 12:12:25;;;;;;;13.00;7.75;;;;;;;30.29;20.43;99255.72;6126626;23;20527;-83
2023/06/16 12:14:52;;;;;;;23.42;8.60;;;;;;;30.31;21.96;99253.25;6127826;23;20402;-84
2023/06/16 12:17:18;;;;;;;22.75;8.45;;;;;;;29.91;20.99;99220.56;6175878;23;20104;-87
2023/06/16 12:19:46;;;;;;;;;;;;;;;29.53;20.65;99242.91;6153239;23;20092;-86
2023/06/16 12:22:12;;;;;;;14.98;7.60;;;;;;;29.38;25.12;99210.75;6153285;23;19942;-88
2023/06/16 12:24:40;;;;;;;31.73;8.93;;;;;;;29.59;21.72;99227.06;6176353;23;20665;-87
2023/06/16 12:27:09;;;;;;;24.13;9.23;;;;;;;29.77;24.33;99225.78;6152403;23;20013;-86
2023/06/16 12:29:35;;;;;;;9.38;7.38;;;;;;;29.81;21.79;99189.88;6125384;23;20017;-87
2023/06/16 12:32:05;;;;;;;34.67;9.32;;;;;;;30.15;22.09;99223.09;6152170;23;20072;-89